Time;durP1;ratioP1;P1;durP2;ratioP2;P2;SDS_P1;SDS_P2;PMS_P1;PMS_P2;Temp;Humidity;BMP_temperature;BMP_pressure;BME280_temperature;BME280_humidity;BME280_pressure;Samples;Min_cycle;Max_cycle;Signal;HPM_P1;HPM_P2
2023/03/31 00:04:52;;;;;;;3.78;1.27;;;;;;;8.36;80.73;97197.88;9788787;30;20420;-75
2023/03/31 00:10:14;;;;;;;2.03;0.90;;;;;;;8.32;80.90;97193.47;9801015;30;20053;-74
2023/03/31 00:15:38;;;;;;;4.72;1.15;;;;;;;8.31;81.35;97178.13;9788178;30;20522;-75
2023/03/31 00:21:13;;;;;;;4.28;1.30;;;;;;;8.28;81.30;97178.56;9776512;30;20052;-75
2023/03/31 00:26:34;;;;;;;2.05;0.80;;;;;;;8.32;81.64;97193.47;9776825;30;20049;-74
2023/03/31 00:31:56;;;;;;;2.53;1.00;;;;;;;8.28;81.66;97176.50;9775994;30;20059;-74
2023/03/31 00:37:17;;;;;;;3.53;0.95;;;;;;;8.28;81.87;97175.78;9764126;30;20049;-75
2023/03/31 00:42:42;;;;;;;2.92;1.10;;;;;;;8.27;82.09;97157.63;9763812;30;20048;-75
2023/03/31 00:48:10;;;;;;;4.18;0.88;;;;;;;8.22;82.42;97167.78;9776073;30;20122;-75
2023/03/31 00:53:32;;;;;;;2.60;0.80;;;;;;;8.23;82.59;97146.25;9777125;30;20096;-75
2023/03/31 00:58:56;;;;;;;3.08;0.77;;;;;;;8.25;82.49;97144.31;9778622;30;20484;-75
2023/03/31 01:04:21;;;;;;;;;;;;;;;8.22;82.92;97131.63;9777576;30;20102;-74
2023/03/31 01:09:46;;;;;;;3.08;0.70;;;;;;;8.26;82.98;97126.31;9787268;30;19984;-75
2023/03/31 01:15:07;;;;;;;2.63;1.27;;;;;;;8.35;82.93;97119.28;9786822;30;20052;-75
2023/03/31 01:20:44;;;;;;;3.38;1.38;;;;;;;8.39;82.49;97107.69;9774458;30;20538;-74
2023/03/31 01:26:23;;;;;;;5.47;1.20;;;;;;;8.37;82.64;97090.88;9773957;30;20048;-74
2023/03/31 01:31:51;;;;;;;4.35;1.30;;;;;;;8.29;83.02;97075.06;9773607;30;20072;-75
2023/03/31 01:37:22;;;;;;;2.63;1.17;;;;;;;8.31;82.86;97069.66;9786419;30;20537;-74
2023/03/31 01:42:52;;;;;;;4.13;1.63;;;;;;;8.32;82.66;97048.16;9785007;30;20056;-75
2023/03/31 01:48:17;;;;;;;7.70;1.25;;;;;;;8.25;83.33;97052.56;9773989;30;20520;-75
2023/03/31 01:53:54;;;;;;;5.82;1.58;;;;;;;8.21;83.44;97043.97;9774414;30;20066;-75
2023/03/31 01:59:30;;;;;;;4.05;1.27;;;;;;;8.20;83.40;97025.84;9773330;30;20139;-74
2023/03/31 02:05:04;;;;;;;4.53;1.10;;;;;;;8.15;83.63;97015.78;9773313;30;20048;-75
2023/03/31 02:10:25;;;;;;;;;;;;;;;8.14;84.33;97011.53;9774196;30;20056;-75
2023/03/31 02:15:53;;;;;;;3.72;1.10;;;;;;;8.17;83.62;97004.78;9785066;30;20028;-75
2023/03/31 02:21:15;;;;;;;6.10;1.17;;;;;;;8.24;84.10;97003.84;9772772;30;20052;-75
2023/03/31 02:26:39;;;;;;;4.47;1.10;;;;;;;8.30;84.14;97009.81;9758644;30;20055;-75
2023/03/31 02:32:02;;;;;;;4.17;0.90;;;;;;;8.35;83.95;97007.31;9770432;30;20481;-76
2023/03/31 02:37:24;;;;;;;3.97;0.90;;;;;;;8.32;83.97;96996.03;9768408;30;20110;-75
2023/03/31 02:42:45;;;;;;;5.60;1.33;;;;;;;8.27;83.98;96991.53;9769423;30;20044;-76
2023/03/31 02:48:07;;;;;;;7.35;1.00;;;;;;;8.20;83.79;96986.94;9783039;30;20130;-75
2023/03/31 02:53:34;;;;;;;5.45;0.80;;;;;;;8.16;84.30;96986.66;9760413;30;20077;-76
2023/03/31 02:59:32;;;;;;;7.32;0.77;;;;;;;8.10;84.20;96977.91;9792726;30;20481;-76
2023/03/31 03:05:12;;;;;;;3.15;0.93;;;;;;;8.12;84.06;96980.84;9795905;30;20053;-75
2023/03/31 03:10:55;;;;;;;4.45;1.00;;;;;;;8.21;84.17;96982.81;9776849;30;20404;-76
2023/03/31 03:16:26;;;;;;;2.70;0.68;;;;;;;8.30;84.72;96978.50;9773334;30;20045;-75
2023/03/31 03:21:47;;;;;;;5.57;1.27;;;;;;;8.37;84.16;96962.94;9787409;30;20127;-76
2023/03/31 03:27:08;;;;;;;2.05;0.80;;;;;;;8.44;83.73;96973.13;9775278;30;20453;-76
2023/03/31 03:32:29;;;;;;;3.55;0.90;;;;;;;8.52;83.79;96959.75;9775231;30;20057;-76
2023/03/31 03:37:50;;;;;;;2.45;0.73;;;;;;;8.62;83.33;96952.03;9775405;30;20485;-76
2023/03/31 03:43:11;;;;;;;4.40;0.70;;;;;;;8.66;83.52;96946.69;9777689;30;20053;-76
2023/03/31 03:48:32;;;;;;;4.45;0.95;;;;;;;8.70;83.00;96923.97;9777470;30;20056;-76
2023/03/31 03:53:53;;;;;;;3.13;0.77;;;;;;;8.75;83.19;96909.69;9777201;30;20128;-76
2023/03/31 03:59:14;;;;;;;4.47;0.80;;;;;;;8.77;83.25;96906.31;9777152;30;20052;-76
2023/03/31 04:04:35;;;;;;;6.38;1.10;;;;;;;8.79;83.15;96898.84;9776449;30;20404;-76
2023/03/31 04:09:56;;;;;;;4.03;0.77;;;;;;;8.80;82.87;96899.56;9776665;30;20056;-76
2023/03/31 04:15:17;;;;;;;3.63;0.80;;;;;;;8.84;83.14;96883.09;9776779;30;20052;-76
2023/03/31 04:20:37;;;;;;;6.03;0.82;;;;;;;8.89;82.59;96877.19;9775591;30;20049;-76
2023/03/31 04:25:58;;;;;;;2.30;0.68;;;;;;;8.92;82.10;96877.28;9772519;30;20044;-76
2023/03/31 04:31:24;;;;;;;5.43;0.85;;;;;;;8.88;82.27;96861.81;9775206;30;20511;-76
2023/03/31 04:36:49;;;;;;;3.30;0.80;;;;;;;8.84;82.42;96860.84;9775714;30;20041;-76
2023/03/31 04:42:10;;;;;;;5.03;0.90;;;;;;;8.83;82.49;96865.69;9749023;30;20075;-76
2023/03/31 04:47:31;;;;;;;5.68;1.27;;;;;;;8.86;82.24;96852.59;9723187;30;20056;-76
2023/03/31 04:52:51;;;;;;;4.70;1.10;;;;;;;8.94;81.95;96855.88;9723402;30;20115;-76
2023/03/31 04:58:12;;;;;;;4.88;0.93;;;;;;;9.05;81.37;96837.69;9722035;30;20049;-76
2023/03/31 05:03:33;;;;;;;3.20;1.00;;;;;;;9.11;80.86;96827.66;9723357;30;20108;-76
2023/03/31 05:08:54;;;;;;;4.35;0.77;;;;;;;9.29;80.55;96836.34;9724272;30;20519;-76
2023/03/31 05:14:15;;;;;;;6.68;1.23;;;;;;;9.49;79.66;96824.91;9721172;30;20049;-76
2023/03/31 05:19:36;;;;;;;5.25;0.90;;;;;;;9.59;79.45;96815.06;9723430;30;20079;-76
2023/03/31 05:24:57;;;;;;;5.55;1.33;;;;;;;9.72;79.14;96808.09;9751217;30;20110;-77
2023/03/31 05:30:17;;;;;;;3.70;1.08;;;;;;;9.78;78.38;96791.72;9736594;30;20083;-77
2023/03/31 05:35:38;;;;;;;6.75;1.10;;;;;;;10.02;78.71;96776.31;9724457;30;20083;-76
2023/03/31 05:40:59;;;;;;;3.17;1.00;;;;;;;10.30;77.62;96768.03;9760718;30;20081;-76
2023/03/31 05:46:20;;;;;;;3.33;1.23;;;;;;;10.38;76.46;96762.91;9751268;30;20124;-76
2023/03/31 05:51:41;;;;;;;4.95;1.10;;;;;;;10.35;76.55;96752.97;9722582;30;20061;-76
2023/03/31 05:57:02;;;;;;;4.03;1.17;;;;;;;10.43;76.45;96747.09;9740709;30;20044;-76
2023/03/31 06:02:23;;;;;;;6.32;1.00;;;;;;;16.73;77.81;96754.75;9757000;30;20551;-77
2023/03/31 06:07:44;;;;;;;3.72;1.27;;;;;;;23.31;60.83;96733.38;9746650;30;20060;-76
2023/03/31 06:13:05;;;;;;;4.60;1.02;;;;;;;27.32;47.14;96739.53;9736447;30;20084;-73
2023/03/31 06:18:28;;;;;;;1.80;0.63;;;;;;;30.02;43.44;96735.72;9748707;30;20076;-75
2023/03/31 06:23:53;;;;;;;4.40;0.90;;;;;;;32.22;37.93;96726.34;9748602;30;20064;-76
2023/03/31 06:29:14;;;;;;;3.83;1.05;;;;;;;33.26;26.99;96718.22;9751791;30;20084;-77
2023/03/31 06:34:35;;;;;;;3.95;1.02;;;;;;;25.00;30.69;96716.00;9743630;30;20056;-76
2023/03/31 06:39:57;;;;;;;4.03;1.30;;;;;;;19.61;35.70;96713.78;9744305;30;20465;-74
2023/03/31 06:45:18;;;;;;;7.07;1.57;;;;;;;16.71;39.90;96706.81;9739948;30;20303;-74
2023/03/31 06:50:45;;;;;;;4.55;1.00;;;;;;;15.10;42.94;96709.63;9733097;30;20536;-77
2023/03/31 06:56:06;;;;;;;4.07;1.05;;;;;;;14.30;44.44;96708.94;9758007;30;20057;-76
2023/03/31 07:01:27;;;;;;;4.18;0.77;;;;;;;13.68;47.44;96705.19;9773753;30;20501;-77
2023/03/31 07:06:48;;;;;;;3.55;0.88;;;;;;;13.32;49.32;96693.28;9750418;30;20049;-77
2023/03/31 07:12:09;;;;;;;6.88;0.80;;;;;;;13.69;49.98;96689.81;9752143;30;20057;-77
2023/03/31 07:17:29;;;;;;;3.85;0.98;;;;;;;14.14;50.86;96680.28;9750175;30;20049;-78
2023/03/31 07:22:50;;;;;;;5.15;1.33;;;;;;;13.85;50.29;96684.81;9749445;30;20409;-76
2023/03/31 07:28:11;;;;;;;3.13;0.70;;;;;;;13.55;51.15;96683.66;9944062;24;20068;-76
2023/03/31 07:33:31;;;;;;;5.05;1.42;;;;;;;13.71;52.50;96671.00;9748142;30;20535;-76
2023/03/31 07:38:52;;;;;;;3.55;0.98;;;;;;;15.08;52.01;96665.31;9741124;30;20069;-76
2023/03/31 07:44:14;;;;;;;5.32;1.10;;;;;;;16.84;49.87;96657.81;9748956;30;20570;-76
2023/03/31 07:49:35;;;;;;;7.22;1.27;;;;;;;17.35;48.39;96655.53;9756649;30;20045;-80
2023/03/31 07:54:56;;;;;;;4.95;1.30;;;;;;;17.02;47.92;96639.94;9769632;30;20497;-79
2023/03/31 08:00:18;;;;;;;5.97;1.15;;;;;;;16.68;48.29;96623.59;9772189;30;20124;-80
2023/03/31 08:05:38;;;;;;;4.53;1.40;;;;;;;16.45;48.42;96630.00;9759907;30;20140;-79
2023/03/31 08:10:59;;;;;;;5.97;2.70;;;;;;;16.25;48.58;96630.88;9783406;30;20493;-79
2023/03/31 08:16:21;;;;;;;7.68;1.83;;;;;;;15.48;48.84;96633.53;9791687;30;20060;-79
2023/03/31 08:21:42;;;;;;;4.40;1.10;;;;;;;14.57;50.90;96641.16;9811524;30;20049;-79
2023/03/31 08:27:02;;;;;;;4.72;1.00;;;;;;;14.12;51.62;96621.28;9782123;30;20049;-80
2023/03/31 08:32:23;;;;;;;5.07;1.13;;;;;;;13.71;52.86;96612.09;9794570;30;20501;-79
2023/03/31 08:37:44;;;;;;;6.55;1.20;;;;;;;13.56;53.30;96609.41;9793755;30;20044;-79
2023/03/31 08:43:09;;;;;;;6.85;1.02;;;;;;;13.44;55.57;96606.88;9772167;30;20056;-78
2023/03/31 08:48:43;;;;;;;5.28;1.05;;;;;;;13.11;56.50;96608.38;9777433;30;20049;-77
2023/03/31 08:54:13;;;;;;;9.70;1.40;;;;;;;12.77;56.71;96599.31;9769327;30;20060;-78
2023/03/31 08:59:36;;;;;;;4.55;1.35;;;;;;;12.62;56.83;96602.88;9773951;30;20053;-78
2023/03/31 09:11:22;;;;;;;6.60;2.00;;;;;;;12.46;58.60;96585.44;11800786;24;20080;-78
2023/03/31 09:41:59;;;;;;;4.95;1.50;;;;;;;12.16;62.18;96542.91;10105179;24;20061;-78
2023/03/31 09:47:43;;;;;;;9.90;1.80;;;;;;;12.37;63.04;96528.41;9808340;30;20512;-78
2023/03/31 09:53:04;;;;;;;;;;;;;;;12.65;63.50;96528.13;9802043;30;20068;-77
2023/03/31 09:58:25;;;;;;;4.70;1.80;;;;;;;12.81;63.95;96509.88;9786426;30;20298;-76
2023/03/31 10:04:14;;;;;;;4.65;1.55;;;;;;;13.17;63.59;96504.22;11243663;24;21019;31
2023/03/31 10:09:35;;;;;;;5.60;1.50;;;;;;;13.03;63.15;96493.22;9690102;30;20077;-76
2023/03/31 10:15:19;;;;;;;5.20;1.92;;;;;;;12.99;64.14;96483.94;9703764;30;20061;-77
2023/03/31 10:20:43;;;;;;;6.38;1.75;;;;;;;12.98;64.54;96477.59;9704193;30;20414;-77
2023/03/31 10:26:04;;;;;;;4.63;1.55;;;;;;;13.40;64.98;96472.16;9700026;30;20054;-77
2023/03/31 10:31:35;;;;;;;5.60;1.85;;;;;;;13.71;64.31;96462.75;9703086;30;20076;-77
2023/03/31 10:37:03;;;;;;;9.90;2.33;;;;;;;13.53;63.85;96448.81;9730488;30;20057;-79
2023/03/31 10:43:19;;;;;;;4.95;1.83;;;;;;;13.42;64.26;96455.44;9705871;30;20486;-79
2023/03/31 11:14:24;;;;;;;7.68;2.15;;;;;;;12.44;67.29;96426.53;9754921;30;20054;-79
2023/03/31 11:20:35;;;;;;;7.25;2.25;;;;;;;12.23;67.34;96422.22;9758861;30;20057;-80
2023/03/31 11:26:02;;;;;;;5.63;2.28;;;;;;;12.17;69.51;96419.19;9745977;30;20050;-78
2023/03/31 11:32:15;;;;;;;7.90;2.92;;;;;;;12.09;71.38;96418.16;9737728;30;20061;-78
2023/03/31 11:45:42;;;;;;;3.78;0.70;;;;;;;11.66;69.61;96273.81;9742703;30;20115;-78
2023/03/31 11:51:43;;;;;;;3.58;0.60;;;;;;;12.03;71.18;96315.13;9743337;30;20102;-78
2023/03/31 11:57:19;;;;;;;1.33;0.40;;;;;;;12.71;71.12;96340.78;9740636;30;20080;-78
2023/03/31 12:11:00;;;;;;;1.10;0.38;;;;;;;13.70;65.35;96333.06;9740421;30;20057;-78
2023/03/31 12:16:40;;;;;;;0.95;0.30;;;;;;;13.48;63.80;96320.38;9726496;30;20057;-78
2023/03/31 12:22:15;;;;;;;1.73;0.30;;;;;;;13.87;63.42;96303.44;9741040;30;20049;-78
2023/03/31 12:28:37;;;;;;;0.95;0.38;;;;;;;15.22;62.25;96298.91;9740663;30;20494;-78
2023/03/31 12:34:33;;;;;;;1.20;0.45;;;;;;;16.11;59.40;96292.69;9727082;30;20081;-77
2023/03/31 12:49:20;;;;;;;1.75;0.60;;;;;;;15.02;58.48;96260.47;9738705;30;20053;-79
2023/03/31 13:18:51;;;;;;;2.08;0.50;;;;;;;15.34;57.76;96186.78;9745888;30;20057;-79
2023/03/31 13:24:12;;;;;;;1.40;0.60;;;;;;;15.54;57.60;96166.88;9709234;30;20071;-78
2023/03/31 13:29:43;;;;;;;2.08;0.57;;;;;;;15.51;56.46;96168.22;9759085;30;20152;-78
2023/03/31 13:35:06;;;;;;;3.83;0.85;;;;;;;15.41;57.08;96140.56;9746200;30;20050;-79
2023/03/31 13:41:15;;;;;;;0.75;0.40;;;;;;;15.44;56.15;96139.22;9746959;30;20053;-78
2023/03/31 13:46:54;;;;;;;1.70;0.68;;;;;;;14.80;56.99;96155.94;9746331;30;20050;-78
2023/03/31 13:52:24;;;;;;;2.30;0.70;;;;;;;14.25;57.75;96148.84;9745863;30;20466;-78
2023/03/31 13:58:23;;;;;;;4.57;0.95;;;;;;;13.56;64.61;96192.41;9735882;30;20108;-78
2023/03/31 14:04:35;;;;;;;1.23;0.30;;;;;;;12.49;61.97;96183.94;9750240;30;20098;-79
2023/03/31 14:34:25;;;;;;;1.77;0.40;;;;;;;12.31;63.04;96178.41;10820608;24;20155;-79
2023/03/31 14:39:51;;;;;;;4.05;0.50;;;;;;;12.45;61.98;96181.72;9842552;29;20432;-82
2023/03/31 14:45:17;;;;;;;2.88;0.70;;;;;;;12.19;61.91;96173.09;9846449;30;20056;-82
2023/03/31 15:10:06;;;;;;;1.92;0.50;;;;;;;11.71;62.31;96130.09;11884522;24;20027;-79
2023/03/31 15:28:38;;;;;;;1.65;0.50;;;;;;;11.57;63.14;96093.22;11947239;24;20073;31
2023/03/31 15:33:59;;;;;;;2.42;0.30;;;;;;;11.66;62.51;96095.66;9817765;30;20056;-78
2023/03/31 15:39:23;;;;;;;2.58;0.65;;;;;;;11.94;62.24;96078.50;9803592;30;20485;-79
2023/03/31 15:45:55;;;;;;;3.03;0.57;;;;;;;12.22;61.62;96085.09;9819264;30;20057;-80
2023/03/31 15:51:16;;;;;;;1.60;0.40;;;;;;;12.07;61.55;96097.16;9804733;30;20049;-78
2023/03/31 15:56:44;;;;;;;2.47;0.50;;;;;;;11.66;62.40;96094.94;9801158;30;20055;-77
2023/03/31 16:02:09;;;;;;;2.92;0.80;;;;;;;11.33;62.97;96090.22;9789472;30;20052;-78
2023/03/31 16:08:17;;;;;;;1.95;0.90;;;;;;;11.18;63.82;96108.50;10660423;24;20037;31
2023/03/31 16:20:18;;;;;;;3.65;0.80;;;;;;;11.23;64.35;96123.34;11847305;24;20035;-81
2023/03/31 16:33:54;;;;;;;3.10;0.80;;;;;;;11.46;64.50;96120.06;9849849;30;20051;-82
2023/03/31 16:39:18;;;;;;;5.80;1.20;;;;;;;11.40;64.54;96147.78;9805326;30;20055;-80
2023/03/31 16:46:03;;;;;;;4.82;1.60;;;;;;;11.21;64.96;96114.91;9846473;30;20075;-83
2023/03/31 16:52:21;;;;;;;3.67;1.23;;;;;;;11.14;64.56;96100.69;11102326;24;20071;-81
2023/03/31 16:57:42;;;;;;;3.03;1.10;;;;;;;11.05;64.55;96098.22;9816528;30;20287;-83
2023/03/31 17:03:17;;;;;;;3.38;0.90;;;;;;;10.92;65.46;96099.13;10430130;24;20504;-79
2023/03/31 17:08:38;;;;;;;2.10;0.80;;;;;;;10.81;65.59;96117.53;9782248;30;20053;-79
2023/03/31 17:14:01;;;;;;;2.50;0.98;;;;;;;10.67;66.20;96120.44;10126416;24;20516;-77
2023/03/31 17:19:21;;;;;;;3.30;1.00;;;;;;;10.56;66.41;96121.38;9793050;30;20086;-79
2023/03/31 17:31:33;;;;;;;2.67;0.95;;;;;;;10.43;67.69;96134.13;11956789;24;20050;31
2023/03/31 17:36:56;;;;;;;3.72;1.40;;;;;;;10.36;67.42;96135.19;9723129;30;20053;-81
2023/03/31 17:42:19;;;;;;;2.70;0.90;;;;;;;10.27;68.44;96128.56;9760760;30;20079;-83
2023/03/31 17:47:42;;;;;;;2.85;0.77;;;;;;;10.16;67.94;96139.88;9751552;30;20037;-82
2023/03/31 17:53:07;;;;;;;1.53;0.60;;;;;;;9.99;68.69;96122.44;9763667;30;20038;-82
2023/03/31 17:58:33;;;;;;;3.55;1.00;;;;;;;9.88;70.01;96128.94;9738014;30;20073;-83
2023/03/31 18:04:42;;;;;;;3.38;0.90;;;;;;;9.80;70.30;96128.56;9794814;30;20044;-83
2023/03/31 18:11:43;;;;;;;7.45;1.42;;;;;;;9.64;70.50;96148.06;9658837;30;20050;-79
2023/03/31 18:17:03;;;;;;;6.57;1.58;;;;;;;9.60;71.19;96163.88;9648795;30;20058;-80
2023/03/31 18:22:25;;;;;;;3.45;1.67;;;;;;;9.50;71.76;96164.13;9655586;30;20164;-79
2023/03/31 18:27:47;;;;;;;7.22;2.17;;;;;;;9.45;71.84;96163.22;9807120;30;20056;-79
2023/03/31 18:33:09;;;;;;;3.35;1.05;;;;;;;9.42;71.71;96175.59;9795619;30;20055;-78
2023/03/31 18:38:31;;;;;;;4.05;0.98;;;;;;;9.36;72.48;96150.28;9794033;30;20075;-78
2023/03/31 18:43:52;;;;;;;6.45;1.45;;;;;;;9.30;72.71;96168.75;9798168;30;20045;-78
2023/03/31 18:49:14;;;;;;;4.82;1.13;;;;;;;9.20;73.46;96166.22;9793661;30;20489;-78
2023/03/31 18:54:35;;;;;;;9.23;3.90;;;;;;;9.17;73.49;96167.47;9793237;30;20500;-78
2023/03/31 18:59:56;;;;;;;5.45;2.08;;;;;;;9.32;73.69;96172.34;9793414;30;20057;-78
2023/03/31 19:05:17;;;;;;;4.03;1.45;;;;;;;9.42;72.90;96174.88;9778911;30;20480;-79
2023/03/31 19:10:38;;;;;;;5.50;1.40;;;;;;;9.34;73.57;96166.88;9758517;30;20057;-78
2023/03/31 19:15:58;;;;;;;3.78;1.50;;;;;;;9.22;73.62;96177.44;9757473;30;20049;-77
2023/03/31 19:21:19;;;;;;;3.95;1.52;;;;;;;9.13;73.82;96167.97;9759018;30;20080;-77
2023/03/31 19:26:40;;;;;;;3.00;1.17;;;;;;;9.07;74.11;96184.41;9759686;30;20068;-77
2023/03/31 19:32:01;;;;;;;2.97;1.13;;;;;;;9.02;74.64;96176.47;9761573;30;20059;-81
2023/03/31 19:37:23;;;;;;;3.28;1.30;;;;;;;8.95;74.84;96183.09;9783752;30;20057;-81
2023/03/31 19:42:46;;;;;;;3.28;1.05;;;;;;;8.97;75.21;96172.03;9791893;30;20053;-81
2023/03/31 19:48:07;;;;;;;4.97;1.58;;;;;;;9.10;75.68;96169.25;9779196;30;20068;-81
2023/03/31 19:53:51;;;;;;;5.78;2.30;;;;;;;9.24;75.42;96179.59;9841595;24;20040;31
2023/03/31 19:59:12;;;;;;;9.90;2.10;;;;;;;9.29;75.26;96178.47;9760493;30;20371;-78
2023/03/31 20:04:33;;;;;;;4.40;1.33;;;;;;;9.33;75.26;96184.22;9731913;30;20498;-78
2023/03/31 20:09:54;;;;;;;7.13;1.67;;;;;;;9.29;75.52;96181.97;10398974;24;20077;-81
2023/03/31 20:15:15;;;;;;;5.82;1.85;;;;;;;9.27;76.33;96175.59;9807541;30;20032;-81
2023/03/31 20:20:36;;;;;;;6.13;1.92;;;;;;;9.24;76.31;96171.25;9848854;30;20098;-81
2023/03/31 20:25:59;;;;;;;5.55;2.05;;;;;;;9.27;76.44;96167.22;9836323;30;20066;-81
2023/03/31 20:31:22;;;;;;;5.00;2.08;;;;;;;9.38;75.94;96163.56;9847972;30;20052;-81
2023/03/31 20:36:45;;;;;;;5.78;1.42;;;;;;;9.45;76.29;96162.50;9835905;30;20037;-82
2023/03/31 20:42:13;;;;;;;7.22;1.73;;;;;;;9.46;76.04;96164.66;9835772;30;20036;-82
2023/03/31 20:48:05;;;;;;;5.05;1.30;;;;;;;9.46;75.79;96170.25;9839629;30;20044;-82
2023/03/31 21:06:10;;;;;;;5.05;1.50;;;;;;;9.14;76.28;96163.13;10612627;24;20111;-81
2023/03/31 21:11:32;;;;;;;5.05;1.60;;;;;;;9.07;76.48;96150.25;9822287;30;20092;-81
2023/03/31 21:16:54;;;;;;;5.43;1.48;;;;;;;8.98;76.09;96145.69;9809645;30;20037;-81
2023/03/31 21:22:16;;;;;;;5.18;1.88;;;;;;;8.91;76.90;96152.28;9833944;30;20068;-81
2023/03/31 21:27:38;;;;;;;3.60;1.30;;;;;;;8.81;77.04;96144.16;9822181;30;20072;-81
2023/03/31 21:32:59;;;;;;;3.58;1.60;;;;;;;8.72;77.68;96148.63;9832642;30;20063;-81
2023/03/31 21:38:21;;;;;;;5.22;1.90;;;;;;;8.65;77.63;96143.38;9833416;30;20088;-81
2023/03/31 21:43:42;;;;;;;4.30;1.50;;;;;;;8.66;77.82;96151.09;9837397;24;20044;-81
2023/03/31 21:49:05;;;;;;;5.00;1.40;;;;;;;8.62;77.81;96150.19;9855192;30;20104;-81
2023/03/31 21:54:26;;;;;;;4.85;1.58;;;;;;;8.61;77.29;96155.03;9843150;30;20052;-81
2023/03/31 21:59:48;;;;;;;5.88;1.80;;;;;;;8.60;77.78;96157.09;9844110;30;20056;-81
2023/03/31 22:05:09;;;;;;;5.97;1.83;;;;;;;8.57;77.56;96147.19;9856356;30;20083;-80
2023/03/31 22:10:31;;;;;;;4.40;1.42;;;;;;;8.58;77.50;96145.13;9841596;30;20064;-80
2023/03/31 22:15:53;;;;;;;3.83;0.85;;;;;;;8.58;77.31;96137.50;9841758;30;20063;-80
2023/03/31 22:21:20;;;;;;;2.40;0.70;;;;;;;8.62;77.45;96150.91;9855348;30;20082;-81
2023/03/31 22:26:42;;;;;;;4.55;0.75;;;;;;;8.67;77.39;96152.53;9842300;30;20060;-81
2023/03/31 22:32:03;;;;;;;4.47;0.77;;;;;;;8.69;76.85;96149.88;9842535;30;20071;-81
2023/03/31 22:37:25;;;;;;;1.33;0.43;;;;;;;8.82;76.71;96140.75;9854814;30;20059;-80
2023/03/31 22:42:47;;;;;;;2.17;0.35;;;;;;;8.81;76.39;96139.31;9853083;30;20075;-80
2023/03/31 22:48:08;;;;;;;2.83;0.50;;;;;;;8.91;76.04;96132.81;9852345;30;20063;-80
2023/03/31 22:53:31;;;;;;;2.33;0.45;;;;;;;9.07;75.90;96137.09;9865398;30;20071;-80
2023/03/31 22:58:55;;;;;;;6.65;0.50;;;;;;;9.16;75.51;96133.31;9829998;30;20072;-80
2023/03/31 23:04:17;;;;;;;3.30;0.40;;;;;;;9.22;74.69;96135.69;9852215;30;20047;-80
2023/03/31 23:09:39;;;;;;;4.65;0.47;;;;;;;9.33;74.39;96145.22;9853003;30;20183;-80
2023/03/31 23:15:00;;;;;;;1.02;0.20;;;;;;;9.38;74.36;96144.78;9845463;30;20042;-80
2023/03/31 23:20:23;;;;;;;1.83;0.38;;;;;;;9.42;73.46;96135.91;9871062;30;20044;-80
2023/03/31 23:25:44;;;;;;;4.55;0.50;;;;;;;9.48;73.72;96146.63;9846085;30;20081;-80
2023/03/31 23:31:06;;;;;;;1.98;0.30;;;;;;;9.44;73.56;96128.34;9862995;30;20105;-80
2023/03/31 23:36:27;;;;;;;2.67;0.40;;;;;;;9.48;73.44;96130.63;9857174;30;20052;-81
2023/03/31 23:41:49;;;;;;;3.67;0.50;;;;;;;9.51;73.02;96131.41;9843020;30;20068;-80
2023/03/31 23:47:11;;;;;;;1.73;0.22;;;;;;;9.50;73.38;96127.19;9840073;30;20075;-80
2023/03/31 23:52:34;;;;;;;2.55;0.32;;;;;;;9.51;72.86;96125.84;9852963;30;20077;-80
2023/03/31 23:57:56;;;;;;;2.10;0.28;;;;;;;9.50;72.48;96124.41;9852235;30;20059;-81
